Terminal Aerodrome Forecast
Issued by NWS

Home | Current Version | Previous Version | Text Only | Print | Product List | Glossary On
Versions: 1 2 3 4 5 6 7 8 9 10 11 12 13
000
FTUS43 KEAX 301700
TAFSTJ
TAF
KSTJ 301720Z 3018/0118 29008KT P6SM SCT100 OVC200
     FM301900 02007KT P6SM SCT120 BKN200
     FM010200 11008KT P6SM VCTS BKN100CB
     FM011300 12008KT P6SM BKN100=

USA.gov is the U.S. government's official web portal to all federal, state and local government web resources and services.